sensor_id;sensor_type;location;lat;lon;timestamp;temperature;humidity
51815;DHT22;37874;53.158;6.766;2023-07-13T00:01:16;26.70;46.60
51815;DHT22;37874;53.158;6.766;2023-07-13T00:03:42;26.70;46.60
51815;DHT22;37874;53.158;6.766;2023-07-13T00:06:09;26.70;46.70
51815;DHT22;37874;53.158;6.766;2023-07-13T00:08:35;26.70;46.70
51815;DHT22;37874;53.158;6.766;2023-07-13T00:11:02;26.70;46.70
51815;DHT22;37874;53.158;6.766;2023-07-13T00:13:28;26.70;46.70
51815;DHT22;37874;53.158;6.766;2023-07-13T00:15:57;26.70;46.80
51815;DHT22;37874;53.158;6.766;2023-07-13T00:18:23;26.70;46.90
51815;DHT22;37874;53.158;6.766;2023-07-13T00:20:48;26.70;47.00
51815;DHT22;37874;53.158;6.766;2023-07-13T00:23:14;26.70;47.10
51815;DHT22;37874;53.158;6.766;2023-07-13T00:25:40;26.70;47.10
51815;DHT22;37874;53.158;6.766;2023-07-13T00:28:06;26.70;47.10
51815;DHT22;37874;53.158;6.766;2023-07-13T00:30:31;26.70;47.20
51815;DHT22;37874;53.158;6.766;2023-07-13T00:32:57;26.70;47.20
51815;DHT22;37874;53.158;6.766;2023-07-13T00:35:23;26.70;47.20
51815;DHT22;37874;53.158;6.766;2023-07-13T00:37:49;26.70;47.30
51815;DHT22;37874;53.158;6.766;2023-07-13T00:40:15;26.70;47.30
51815;DHT22;37874;53.158;6.766;2023-07-13T00:42:41;26.70;47.30
51815;DHT22;37874;53.158;6.766;2023-07-13T00:47:40;26.70;47.30
51815;DHT22;37874;53.158;6.766;2023-07-13T00:50:08;26.70;47.40
51815;DHT22;37874;53.158;6.766;2023-07-13T00:52:41;26.70;47.40
51815;DHT22;37874;53.158;6.766;2023-07-13T00:55:09;26.60;47.40
51815;DHT22;37874;53.158;6.766;2023-07-13T00:57:36;26.60;47.40
51815;DHT22;37874;53.158;6.766;2023-07-13T01:00:05;26.60;47.40
51815;DHT22;37874;53.158;6.766;2023-07-13T01:02:37;26.60;47.40
51815;DHT22;37874;53.158;6.766;2023-07-13T01:05:11;26.70;47.50
51815;DHT22;37874;53.158;6.766;2023-07-13T01:07:36;26.70;47.50
51815;DHT22;37874;53.158;6.766;2023-07-13T01:10:03;26.60;47.40
51815;DHT22;37874;53.158;6.766;2023-07-13T01:12:29;26.60;47.50
51815;DHT22;37874;53.158;6.766;2023-07-13T01:14:58;26.60;47.50
51815;DHT22;37874;53.158;6.766;2023-07-13T01:17:26;26.60;47.50
51815;DHT22;37874;53.158;6.766;2023-07-13T01:19:52;26.60;47.50
51815;DHT22;37874;53.158;6.766;2023-07-13T01:22:19;26.60;47.50
51815;DHT22;37874;53.158;6.766;2023-07-13T01:24:48;26.60;47.50
51815;DHT22;37874;53.158;6.766;2023-07-13T01:27:17;26.60;47.50
51815;DHT22;37874;53.158;6.766;2023-07-13T01:29:45;26.60;47.60
51815;DHT22;37874;53.158;6.766;2023-07-13T01:32:16;26.60;47.60
51815;DHT22;37874;53.158;6.766;2023-07-13T01:34:42;26.60;47.60
51815;DHT22;37874;53.158;6.766;2023-07-13T01:37:10;26.60;47.60
51815;DHT22;37874;53.158;6.766;2023-07-13T01:39:36;26.60;47.60
51815;DHT22;37874;53.158;6.766;2023-07-13T01:42:03;26.60;47.60
51815;DHT22;37874;53.158;6.766;2023-07-13T01:44:29;26.60;47.60
51815;DHT22;37874;53.158;6.766;2023-07-13T01:46:55;26.60;47.70
51815;DHT22;37874;53.158;6.766;2023-07-13T01:49:20;26.60;47.60
51815;DHT22;37874;53.158;6.766;2023-07-13T01:51:46;26.60;47.70
51815;DHT22;37874;53.158;6.766;2023-07-13T01:54:12;26.60;47.70
51815;DHT22;37874;53.158;6.766;2023-07-13T01:56:38;26.60;47.70
51815;DHT22;37874;53.158;6.766;2023-07-13T01:59:04;26.60;47.70
51815;DHT22;37874;53.158;6.766;2023-07-13T02:01:31;26.60;47.70
51815;DHT22;37874;53.158;6.766;2023-07-13T02:03:56;26.60;47.80
51815;DHT22;37874;53.158;6.766;2023-07-13T02:06:22;26.60;47.80
51815;DHT22;37874;53.158;6.766;2023-07-13T02:08:47;26.60;47.80
51815;DHT22;37874;53.158;6.766;2023-07-13T02:11:13;26.60;47.80
51815;DHT22;37874;53.158;6.766;2023-07-13T02:13:39;26.60;47.80
51815;DHT22;37874;53.158;6.766;2023-07-13T02:16:05;26.60;47.80
51815;DHT22;37874;53.158;6.766;2023-07-13T02:18:31;26.60;47.80
51815;DHT22;37874;53.158;6.766;2023-07-13T02:20:57;26.60;47.90
51815;DHT22;37874;53.158;6.766;2023-07-13T02:23:23;26.60;47.90
51815;DHT22;37874;53.158;6.766;2023-07-13T02:25:49;26.50;47.90
51815;DHT22;37874;53.158;6.766;2023-07-13T02:28:14;26.60;48.00
51815;DHT22;37874;53.158;6.766;2023-07-13T02:30:40;26.50;47.90
51815;DHT22;37874;53.158;6.766;2023-07-13T02:33:06;26.50;48.00
51815;DHT22;37874;53.158;6.766;2023-07-13T02:35:32;26.50;48.00
51815;DHT22;37874;53.158;6.766;2023-07-13T02:37:57;26.50;48.00
51815;DHT22;37874;53.158;6.766;2023-07-13T02:40:23;26.50;48.00
51815;DHT22;37874;53.158;6.766;2023-07-13T02:42:49;26.50;48.00
51815;DHT22;37874;53.158;6.766;2023-07-13T02:45:14;26.50;48.00
51815;DHT22;37874;53.158;6.766;2023-07-13T02:47:41;26.50;48.00
51815;DHT22;37874;53.158;6.766;2023-07-13T02:50:07;26.50;48.00
51815;DHT22;37874;53.158;6.766;2023-07-13T02:52:33;26.50;48.00
51815;DHT22;37874;53.158;6.766;2023-07-13T02:54:59;26.50;48.10
51815;DHT22;37874;53.158;6.766;2023-07-13T02:57:25;26.50;48.10
51815;DHT22;37874;53.158;6.766;2023-07-13T02:59:50;26.50;48.10
51815;DHT22;37874;53.158;6.766;2023-07-13T03:02:16;26.50;48.10
51815;DHT22;37874;53.158;6.766;2023-07-13T03:04:42;26.50;48.10
51815;DHT22;37874;53.158;6.766;2023-07-13T03:07:07;26.40;48.10
51815;DHT22;37874;53.158;6.766;2023-07-13T03:09:34;26.50;48.10
51815;DHT22;37874;53.158;6.766;2023-07-13T03:12:00;26.40;48.10
51815;DHT22;37874;53.158;6.766;2023-07-13T03:14:26;26.40;48.10
51815;DHT22;37874;53.158;6.766;2023-07-13T03:16:52;26.40;48.10
51815;DHT22;37874;53.158;6.766;2023-07-13T03:19:18;26.40;48.10
51815;DHT22;37874;53.158;6.766;2023-07-13T03:21:44;26.40;48.10
51815;DHT22;37874;53.158;6.766;2023-07-13T03:24:10;26.40;48.20
51815;DHT22;37874;53.158;6.766;2023-07-13T03:26:36;26.40;48.20
51815;DHT22;37874;53.158;6.766;2023-07-13T03:29:01;26.40;48.20
51815;DHT22;37874;53.158;6.766;2023-07-13T03:31:32;26.40;48.20
51815;DHT22;37874;53.158;6.766;2023-07-13T03:33:59;26.40;48.20
51815;DHT22;37874;53.158;6.766;2023-07-13T03:36:27;26.40;48.20
51815;DHT22;37874;53.158;6.766;2023-07-13T03:38:56;26.40;48.30
51815;DHT22;37874;53.158;6.766;2023-07-13T03:41:24;26.40;48.30
51815;DHT22;37874;53.158;6.766;2023-07-13T03:43:50;26.40;48.30
51815;DHT22;37874;53.158;6.766;2023-07-13T03:46:16;26.40;48.30
51815;DHT22;37874;53.158;6.766;2023-07-13T03:48:43;26.50;48.40
51815;DHT22;37874;53.158;6.766;2023-07-13T03:51:11;26.30;48.20
51815;DHT22;37874;53.158;6.766;2023-07-13T03:53:40;26.30;48.30
51815;DHT22;37874;53.158;6.766;2023-07-13T03:56:07;26.30;48.30
51815;DHT22;37874;53.158;6.766;2023-07-13T03:58:35;26.40;48.40
51815;DHT22;37874;53.158;6.766;2023-07-13T04:01:04;26.40;48.40
51815;DHT22;37874;53.158;6.766;2023-07-13T04:03:31;26.30;48.40
51815;DHT22;37874;53.158;6.766;2023-07-13T04:06:03;26.40;48.40
51815;DHT22;37874;53.158;6.766;2023-07-13T04:08:32;26.30;48.30
51815;DHT22;37874;53.158;6.766;2023-07-13T04:10:59;26.30;48.30
51815;DHT22;37874;53.158;6.766;2023-07-13T04:13:25;26.30;48.30
51815;DHT22;37874;53.158;6.766;2023-07-13T04:15:52;26.30;48.40
51815;DHT22;37874;53.158;6.766;2023-07-13T04:18:18;26.30;48.30
51815;DHT22;37874;53.158;6.766;2023-07-13T04:20:46;26.30;48.40
51815;DHT22;37874;53.158;6.766;2023-07-13T04:23:11;26.30;48.40
51815;DHT22;37874;53.158;6.766;2023-07-13T04:25:37;26.30;48.40
51815;DHT22;37874;53.158;6.766;2023-07-13T04:28:04;26.30;48.40
51815;DHT22;37874;53.158;6.766;2023-07-13T04:30:30;26.30;48.40
51815;DHT22;37874;53.158;6.766;2023-07-13T04:32:56;26.40;48.40
51815;DHT22;37874;53.158;6.766;2023-07-13T04:35:22;26.30;48.30
51815;DHT22;37874;53.158;6.766;2023-07-13T04:37:50;26.30;48.30
51815;DHT22;37874;53.158;6.766;2023-07-13T04:40:17;26.30;48.30
51815;DHT22;37874;53.158;6.766;2023-07-13T04:42:44;26.30;48.40
51815;DHT22;37874;53.158;6.766;2023-07-13T04:45:10;26.30;48.30
51815;DHT22;37874;53.158;6.766;2023-07-13T04:47:36;26.30;48.30
51815;DHT22;37874;53.158;6.766;2023-07-13T04:50:02;26.30;48.30
51815;DHT22;37874;53.158;6.766;2023-07-13T04:52:28;26.30;48.30
51815;DHT22;37874;53.158;6.766;2023-07-13T04:54:54;26.30;48.30
51815;DHT22;37874;53.158;6.766;2023-07-13T04:57:20;26.30;48.30
51815;DHT22;37874;53.158;6.766;2023-07-13T04:59:45;26.30;48.30
51815;DHT22;37874;53.158;6.766;2023-07-13T05:02:11;26.30;48.30
51815;DHT22;37874;53.158;6.766;2023-07-13T05:04:37;26.30;48.20
51815;DHT22;37874;53.158;6.766;2023-07-13T05:07:02;26.40;48.20
51815;DHT22;37874;53.158;6.766;2023-07-13T05:09:28;26.40;48.20
51815;DHT22;37874;53.158;6.766;2023-07-13T05:11:54;26.40;48.10
51815;DHT22;37874;53.158;6.766;2023-07-13T05:14:19;26.50;48.10
51815;DHT22;37874;53.158;6.766;2023-07-13T05:16:45;26.50;48.10
51815;DHT22;37874;53.158;6.766;2023-07-13T05:19:12;26.50;48.10
51815;DHT22;37874;53.158;6.766;2023-07-13T05:21:37;26.50;48.00
51815;DHT22;37874;53.158;6.766;2023-07-13T05:24:03;26.50;48.00
51815;DHT22;37874;53.158;6.766;2023-07-13T05:26:29;26.50;48.00
51815;DHT22;37874;53.158;6.766;2023-07-13T05:28:54;26.50;47.90
51815;DHT22;37874;53.158;6.766;2023-07-13T05:31:20;26.50;47.80
51815;DHT22;37874;53.158;6.766;2023-07-13T05:33:46;26.70;48.00
51815;DHT22;37874;53.158;6.766;2023-07-13T05:36:12;26.60;47.90
51815;DHT22;37874;53.158;6.766;2023-07-13T05:38:37;26.60;47.90
51815;DHT22;37874;53.158;6.766;2023-07-13T05:41:03;26.60;47.90
51815;DHT22;37874;53.158;6.766;2023-07-13T05:43:29;26.50;47.80
51815;DHT22;37874;53.158;6.766;2023-07-13T05:45:56;26.60;47.80
51815;DHT22;37874;53.158;6.766;2023-07-13T05:48:23;26.60;47.80
51815;DHT22;37874;53.158;6.766;2023-07-13T05:50:49;26.60;47.80
51815;DHT22;37874;53.158;6.766;2023-07-13T05:53:14;26.60;47.80
51815;DHT22;37874;53.158;6.766;2023-07-13T05:55:47;26.60;47.80
51815;DHT22;37874;53.158;6.766;2023-07-13T05:58:13;26.60;48.40
51815;DHT22;37874;53.158;6.766;2023-07-13T06:00:39;26.60;47.80
51815;DHT22;37874;53.158;6.766;2023-07-13T06:03:06;26.60;47.80
51815;DHT22;37874;53.158;6.766;2023-07-13T06:05:33;26.60;47.80
51815;DHT22;37874;53.158;6.766;2023-07-13T06:08:00;26.60;47.80
51815;DHT22;37874;53.158;6.766;2023-07-13T06:10:26;26.60;47.80
51815;DHT22;37874;53.158;6.766;2023-07-13T06:12:51;26.60;47.80
51815;DHT22;37874;53.158;6.766;2023-07-13T06:15:17;26.60;47.80
51815;DHT22;37874;53.158;6.766;2023-07-13T06:17:42;26.60;47.80
51815;DHT22;37874;53.158;6.766;2023-07-13T06:20:09;26.60;47.80
51815;DHT22;37874;53.158;6.766;2023-07-13T06:22:35;26.60;47.80
51815;DHT22;37874;53.158;6.766;2023-07-13T06:25:01;26.60;47.80
51815;DHT22;37874;53.158;6.766;2023-07-13T06:27:26;26.60;47.80
51815;DHT22;37874;53.158;6.766;2023-07-13T06:29:52;26.60;47.80
51815;DHT22;37874;53.158;6.766;2023-07-13T06:32:17;26.60;47.80
51815;DHT22;37874;53.158;6.766;2023-07-13T06:34:43;26.60;47.80
51815;DHT22;37874;53.158;6.766;2023-07-13T06:37:09;26.60;47.80
51815;DHT22;37874;53.158;6.766;2023-07-13T06:39:35;26.60;47.80
51815;DHT22;37874;53.158;6.766;2023-07-13T06:42:01;26.60;47.80
51815;DHT22;37874;53.158;6.766;2023-07-13T06:44:26;26.60;47.80
51815;DHT22;37874;53.158;6.766;2023-07-13T06:46:52;26.60;47.80
51815;DHT22;37874;53.158;6.766;2023-07-13T06:49:17;26.60;47.80
51815;DHT22;37874;53.158;6.766;2023-07-13T06:51:43;26.60;47.70
51815;DHT22;37874;53.158;6.766;2023-07-13T06:54:09;26.60;47.80
51815;DHT22;37874;53.158;6.766;2023-07-13T06:56:34;26.60;47.80
51815;DHT22;37874;53.158;6.766;2023-07-13T06:59:00;26.60;47.70
51815;DHT22;37874;53.158;6.766;2023-07-13T07:01:26;26.60;47.80
51815;DHT22;37874;53.158;6.766;2023-07-13T07:03:51;26.60;47.70
51815;DHT22;37874;53.158;6.766;2023-07-13T07:06:22;26.60;47.80
51815;DHT22;37874;53.158;6.766;2023-07-13T07:08:51;26.60;47.70
51815;DHT22;37874;53.158;6.766;2023-07-13T07:11:20;26.70;47.80
51815;DHT22;37874;53.158;6.766;2023-07-13T07:13:47;26.70;47.80
51815;DHT22;37874;53.158;6.766;2023-07-13T07:16:13;26.70;47.70
51815;DHT22;37874;53.158;6.766;2023-07-13T07:18:39;26.80;47.70
51815;DHT22;37874;53.158;6.766;2023-07-13T07:21:04;26.70;47.60
51815;DHT22;37874;53.158;6.766;2023-07-13T07:23:30;26.80;47.50
51815;DHT22;37874;53.158;6.766;2023-07-13T07:25:56;26.80;47.40
51815;DHT22;37874;53.158;6.766;2023-07-13T07:28:22;26.80;47.40
51815;DHT22;37874;53.158;6.766;2023-07-13T07:30:48;26.90;47.40
51815;DHT22;37874;53.158;6.766;2023-07-13T07:33:15;26.90;47.40
51815;DHT22;37874;53.158;6.766;2023-07-13T07:35:42;26.90;47.30
51815;DHT22;37874;53.158;6.766;2023-07-13T07:38:08;26.90;47.30
51815;DHT22;37874;53.158;6.766;2023-07-13T07:40:37;26.90;47.30
51815;DHT22;37874;53.158;6.766;2023-07-13T07:43:03;26.90;47.30
51815;DHT22;37874;53.158;6.766;2023-07-13T07:45:28;26.90;47.30
51815;DHT22;37874;53.158;6.766;2023-07-13T07:47:54;27.00;47.40
51815;DHT22;37874;53.158;6.766;2023-07-13T07:50:25;27.00;47.30
51815;DHT22;37874;53.158;6.766;2023-07-13T07:52:50;27.00;47.20
51815;DHT22;37874;53.158;6.766;2023-07-13T07:55:16;27.00;47.20
51815;DHT22;37874;53.158;6.766;2023-07-13T07:57:43;27.00;47.10
51815;DHT22;37874;53.158;6.766;2023-07-13T08:00:09;27.00;47.70
51815;DHT22;37874;53.158;6.766;2023-07-13T08:02:35;27.00;47.20
51815;DHT22;37874;53.158;6.766;2023-07-13T08:05:00;27.00;47.30
51815;DHT22;37874;53.158;6.766;2023-07-13T08:07:26;27.00;47.30
51815;DHT22;37874;53.158;6.766;2023-07-13T08:09:53;27.00;47.30
51815;DHT22;37874;53.158;6.766;2023-07-13T08:12:19;26.90;47.30
51815;DHT22;37874;53.158;6.766;2023-07-13T08:14:44;27.00;47.40
51815;DHT22;37874;53.158;6.766;2023-07-13T08:17:10;26.90;47.30
51815;DHT22;37874;53.158;6.766;2023-07-13T08:19:35;26.90;47.40
51815;DHT22;37874;53.158;6.766;2023-07-13T08:22:01;27.00;47.40
51815;DHT22;37874;53.158;6.766;2023-07-13T08:24:27;26.90;47.30
51815;DHT22;37874;53.158;6.766;2023-07-13T08:26:52;26.90;47.30
51815;DHT22;37874;53.158;6.766;2023-07-13T08:29:18;27.00;47.40
51815;DHT22;37874;53.158;6.766;2023-07-13T08:31:43;27.00;47.40
51815;DHT22;37874;53.158;6.766;2023-07-13T08:34:10;27.00;47.40
51815;DHT22;37874;53.158;6.766;2023-07-13T08:36:36;27.00;47.40
51815;DHT22;37874;53.158;6.766;2023-07-13T08:39:02;27.00;47.40
51815;DHT22;37874;53.158;6.766;2023-07-13T08:41:28;27.00;47.30
51815;DHT22;37874;53.158;6.766;2023-07-13T08:43:58;27.00;47.30
51815;DHT22;37874;53.158;6.766;2023-07-13T08:46:28;27.00;47.30
51815;DHT22;37874;53.158;6.766;2023-07-13T08:48:59;27.00;47.30
51815;DHT22;37874;53.158;6.766;2023-07-13T08:51:55;27.00;47.40
51815;DHT22;37874;53.158;6.766;2023-07-13T08:54:40;27.00;47.90
51815;DHT22;37874;53.158;6.766;2023-07-13T08:57:15;27.00;47.30
51815;DHT22;37874;53.158;6.766;2023-07-13T08:59:42;27.10;47.40
51815;DHT22;37874;53.158;6.766;2023-07-13T09:05:14;27.10;47.30
51815;DHT22;37874;53.158;6.766;2023-07-13T09:08:01;27.10;47.30
51815;DHT22;37874;53.158;6.766;2023-07-13T09:10:36;27.10;47.30
51815;DHT22;37874;53.158;6.766;2023-07-13T09:13:39;27.10;47.30
51815;DHT22;37874;53.158;6.766;2023-07-13T09:16:10;27.10;47.30
51815;DHT22;37874;53.158;6.766;2023-07-13T09:18:41;27.10;47.40
51815;DHT22;37874;53.158;6.766;2023-07-13T09:21:15;27.10;47.40
51815;DHT22;37874;53.158;6.766;2023-07-13T09:23:41;27.10;47.40
51815;DHT22;37874;53.158;6.766;2023-07-13T09:26:11;27.10;47.50
51815;DHT22;37874;53.158;6.766;2023-07-13T09:28:52;27.10;47.50
51815;DHT22;37874;53.158;6.766;2023-07-13T09:31:20;27.10;47.50
51815;DHT22;37874;53.158;6.766;2023-07-13T09:33:48;27.00;47.50
51815;DHT22;37874;53.158;6.766;2023-07-13T09:36:22;27.00;47.50
51815;DHT22;37874;53.158;6.766;2023-07-13T09:38:55;27.10;48.20
51815;DHT22;37874;53.158;6.766;2023-07-13T09:46:34;27.10;47.50
51815;DHT22;37874;53.158;6.766;2023-07-13T09:49:00;27.10;47.40
51815;DHT22;37874;53.158;6.766;2023-07-13T09:51:26;27.10;47.40
51815;DHT22;37874;53.158;6.766;2023-07-13T09:53:51;27.20;47.40
51815;DHT22;37874;53.158;6.766;2023-07-13T09:56:26;27.20;47.40
51815;DHT22;37874;53.158;6.766;2023-07-13T09:58:52;27.10;47.20
51815;DHT22;37874;53.158;6.766;2023-07-13T10:01:35;27.00;47.70
51815;DHT22;37874;53.158;6.766;2023-07-13T10:04:01;27.20;47.30
51815;DHT22;37874;53.158;6.766;2023-07-13T10:06:27;27.20;47.30
51815;DHT22;37874;53.158;6.766;2023-07-13T10:08:55;27.20;47.30
51815;DHT22;37874;53.158;6.766;2023-07-13T10:11:28;27.20;47.30
51815;DHT22;37874;53.158;6.766;2023-07-13T10:16:38;27.20;47.30
51815;DHT22;37874;53.158;6.766;2023-07-13T10:19:26;27.20;47.30
51815;DHT22;37874;53.158;6.766;2023-07-13T10:22:00;27.20;47.30
51815;DHT22;37874;53.158;6.766;2023-07-13T10:24:37;27.20;47.40
51815;DHT22;37874;53.158;6.766;2023-07-13T10:27:16;27.20;47.40
51815;DHT22;37874;53.158;6.766;2023-07-13T10:29:50;27.20;47.50
51815;DHT22;37874;53.158;6.766;2023-07-13T10:32:20;27.20;47.40
51815;DHT22;37874;53.158;6.766;2023-07-13T10:34:48;27.10;47.50
51815;DHT22;37874;53.158;6.766;2023-07-13T10:37:27;27.20;47.50
51815;DHT22;37874;53.158;6.766;2023-07-13T10:39:56;27.20;47.60
51815;DHT22;37874;53.158;6.766;2023-07-13T10:42:34;27.20;47.60
51815;DHT22;37874;53.158;6.766;2023-07-13T10:45:00;27.20;47.60
51815;DHT22;37874;53.158;6.766;2023-07-13T10:47:27;27.20;47.60
51815;DHT22;37874;53.158;6.766;2023-07-13T10:49:56;27.20;47.60
51815;DHT22;37874;53.158;6.766;2023-07-13T10:55:34;27.30;47.60
51815;DHT22;37874;53.158;6.766;2023-07-13T10:58:03;27.30;47.60
51815;DHT22;37874;53.158;6.766;2023-07-13T11:00:44;27.30;47.70
51815;DHT22;37874;53.158;6.766;2023-07-13T11:03:14;27.30;47.70
51815;DHT22;37874;53.158;6.766;2023-07-13T11:05:41;27.30;47.70
51815;DHT22;37874;53.158;6.766;2023-07-13T11:08:21;27.40;47.80
51815;DHT22;37874;53.158;6.766;2023-07-13T11:10:57;27.30;47.80
51815;DHT22;37874;53.158;6.766;2023-07-13T11:13:39;27.40;47.80
51815;DHT22;37874;53.158;6.766;2023-07-13T11:21:31;27.40;47.70
51815;DHT22;37874;53.158;6.766;2023-07-13T11:24:22;27.40;47.60
51815;DHT22;37874;53.158;6.766;2023-07-13T11:26:51;27.40;47.60
51815;DHT22;37874;53.158;6.766;2023-07-13T11:31:55;27.40;47.70
51815;DHT22;37874;53.158;6.766;2023-07-13T11:34:28;27.40;47.50
51815;DHT22;37874;53.158;6.766;2023-07-13T11:36:57;27.40;47.50
51815;DHT22;37874;53.158;6.766;2023-07-13T11:39:31;27.40;47.60
51815;DHT22;37874;53.158;6.766;2023-07-13T11:42:00;27.50;47.60
51815;DHT22;37874;53.158;6.766;2023-07-13T11:44:30;27.50;47.50
51815;DHT22;37874;53.158;6.766;2023-07-13T11:46:58;27.50;47.50
51815;DHT22;37874;53.158;6.766;2023-07-13T11:49:29;27.50;47.40
51815;DHT22;37874;53.158;6.766;2023-07-13T11:51:56;27.50;47.40
51815;DHT22;37874;53.158;6.766;2023-07-13T11:54:34;27.50;47.30
51815;DHT22;37874;53.158;6.766;2023-07-13T11:59:54;27.50;47.20
51815;DHT22;37874;53.158;6.766;2023-07-13T12:02:35;27.60;47.20
51815;DHT22;37874;53.158;6.766;2023-07-13T12:05:04;27.50;47.10
51815;DHT22;37874;53.158;6.766;2023-07-13T12:07:32;27.50;47.10
51815;DHT22;37874;53.158;6.766;2023-07-13T12:12:55;27.60;46.90
51815;DHT22;37874;53.158;6.766;2023-07-13T12:15:22;27.60;46.90
51815;DHT22;37874;53.158;6.766;2023-07-13T12:17:49;27.60;46.80
51815;DHT22;37874;53.158;6.766;2023-07-13T12:20:22;27.60;46.80
51815;DHT22;37874;53.158;6.766;2023-07-13T12:22:50;27.60;46.80
51815;DHT22;37874;53.158;6.766;2023-07-13T12:25:16;27.70;46.70
51815;DHT22;37874;53.158;6.766;2023-07-13T12:27:47;27.70;46.70
51815;DHT22;37874;53.158;6.766;2023-07-13T12:30:32;27.70;47.00
51815;DHT22;37874;53.158;6.766;2023-07-13T12:33:11;27.80;46.30
51815;DHT22;37874;53.158;6.766;2023-07-13T12:35:47;27.80;46.30
51815;DHT22;37874;53.158;6.766;2023-07-13T12:38:15;27.80;46.20
51815;DHT22;37874;53.158;6.766;2023-07-13T12:40:42;27.80;46.10
51815;DHT22;37874;53.158;6.766;2023-07-13T12:43:12;27.90;46.20
51815;DHT22;37874;53.158;6.766;2023-07-13T12:45:39;27.90;46.00
51815;DHT22;37874;53.158;6.766;2023-07-13T12:48:20;27.90;46.10
51815;DHT22;37874;53.158;6.766;2023-07-13T12:50:48;27.90;45.90
51815;DHT22;37874;53.158;6.766;2023-07-13T12:53:19;27.90;45.90
51815;DHT22;37874;53.158;6.766;2023-07-13T12:55:54;28.00;46.00
51815;DHT22;37874;53.158;6.766;2023-07-13T12:58:27;28.00;46.00
51815;DHT22;37874;53.158;6.766;2023-07-13T13:01:01;28.00;45.90
51815;DHT22;37874;53.158;6.766;2023-07-13T13:06:20;28.10;45.70
51815;DHT22;37874;53.158;6.766;2023-07-13T13:08:47;28.10;46.40
51815;DHT22;37874;53.158;6.766;2023-07-13T13:11:17;28.10;45.80
51815;DHT22;37874;53.158;6.766;2023-07-13T13:13:44;28.10;45.80
51815;DHT22;37874;53.158;6.766;2023-07-13T13:16:33;28.10;45.70
51815;DHT22;37874;53.158;6.766;2023-07-13T13:19:16;28.10;45.80
51815;DHT22;37874;53.158;6.766;2023-07-13T13:21:46;28.20;45.70
51815;DHT22;37874;53.158;6.766;2023-07-13T13:24:17;28.20;45.60
51815;DHT22;37874;53.158;6.766;2023-07-13T13:26:43;28.20;45.40
51815;DHT22;37874;53.158;6.766;2023-07-13T13:29:15;28.20;45.50
51815;DHT22;37874;53.158;6.766;2023-07-13T13:31:42;28.20;45.50
51815;DHT22;37874;53.158;6.766;2023-07-13T13:34:13;28.20;45.50
51815;DHT22;37874;53.158;6.766;2023-07-13T13:36:39;28.20;45.40
51815;DHT22;37874;53.158;6.766;2023-07-13T13:41:45;28.30;45.40
51815;DHT22;37874;53.158;6.766;2023-07-13T13:44:14;28.20;45.20
51815;DHT22;37874;53.158;6.766;2023-07-13T13:46:40;28.30;44.60
51815;DHT22;37874;53.158;6.766;2023-07-13T13:49:16;28.20;44.40
51815;DHT22;37874;53.158;6.766;2023-07-13T13:51:43;28.30;44.30
51815;DHT22;37874;53.158;6.766;2023-07-13T13:54:12;28.20;44.00
51815;DHT22;37874;53.158;6.766;2023-07-13T13:56:37;28.20;44.20
51815;DHT22;37874;53.158;6.766;2023-07-13T13:59:04;28.30;44.10
51815;DHT22;37874;53.158;6.766;2023-07-13T14:01:31;28.30;43.90
51815;DHT22;37874;53.158;6.766;2023-07-13T14:03:56;28.40;43.90
51815;DHT22;37874;53.158;6.766;2023-07-13T14:06:22;28.30;43.80
51815;DHT22;37874;53.158;6.766;2023-07-13T14:08:48;28.30;43.60
51815;DHT22;37874;53.158;6.766;2023-07-13T14:11:16;28.30;43.70
51815;DHT22;37874;53.158;6.766;2023-07-13T14:13:44;28.30;43.50
51815;DHT22;37874;53.158;6.766;2023-07-13T14:16:15;28.30;43.40
51815;DHT22;37874;53.158;6.766;2023-07-13T14:18:43;28.30;43.10
51815;DHT22;37874;53.158;6.766;2023-07-13T14:21:14;28.20;43.20
51815;DHT22;37874;53.158;6.766;2023-07-13T14:23:41;28.20;42.80
51815;DHT22;37874;53.158;6.766;2023-07-13T14:26:35;28.10;42.00
51815;DHT22;37874;53.158;6.766;2023-07-13T14:29:02;28.00;42.00
51815;DHT22;37874;53.158;6.766;2023-07-13T14:31:28;28.00;42.00
51815;DHT22;37874;53.158;6.766;2023-07-13T14:33:57;28.00;42.10
51815;DHT22;37874;53.158;6.766;2023-07-13T14:36:32;28.00;42.00
51815;DHT22;37874;53.158;6.766;2023-07-13T14:39:00;28.00;41.70
51815;DHT22;37874;53.158;6.766;2023-07-13T14:41:27;27.90;41.70
51815;DHT22;37874;53.158;6.766;2023-07-13T14:43:52;28.00;41.50
51815;DHT22;37874;53.158;6.766;2023-07-13T14:46:29;27.90;41.40
51815;DHT22;37874;53.158;6.766;2023-07-13T14:49:05;27.90;41.50
51815;DHT22;37874;53.158;6.766;2023-07-13T14:51:32;27.90;41.20
51815;DHT22;37874;53.158;6.766;2023-07-13T14:54:02;27.80;41.00
51815;DHT22;37874;53.158;6.766;2023-07-13T14:56:28;27.80;41.10
51815;DHT22;37874;53.158;6.766;2023-07-13T14:58:53;27.80;41.20
51815;DHT22;37874;53.158;6.766;2023-07-13T15:01:20;27.80;41.10
51815;DHT22;37874;53.158;6.766;2023-07-13T15:03:48;27.80;41.20
51815;DHT22;37874;53.158;6.766;2023-07-13T15:06:15;27.80;40.70
51815;DHT22;37874;53.158;6.766;2023-07-13T15:08:40;27.80;40.30
51815;DHT22;37874;53.158;6.766;2023-07-13T15:11:10;27.70;40.30
51815;DHT22;37874;53.158;6.766;2023-07-13T15:13:39;27.80;40.40
51815;DHT22;37874;53.158;6.766;2023-07-13T15:16:17;27.80;40.60
51815;DHT22;37874;53.158;6.766;2023-07-13T15:18:44;27.70;40.30
51815;DHT22;37874;53.158;6.766;2023-07-13T15:21:13;27.70;40.30
51815;DHT22;37874;53.158;6.766;2023-07-13T15:23:40;27.70;40.20
51815;DHT22;37874;53.158;6.766;2023-07-13T15:26:11;27.70;40.10
51815;DHT22;37874;53.158;6.766;2023-07-13T15:28:38;27.70;40.00
51815;DHT22;37874;53.158;6.766;2023-07-13T15:31:21;27.70;40.10
51815;DHT22;37874;53.158;6.766;2023-07-13T15:33:48;27.70;40.10
51815;DHT22;37874;53.158;6.766;2023-07-13T15:36:16;27.70;40.00
51815;DHT22;37874;53.158;6.766;2023-07-13T15:38:42;27.70;39.90
51815;DHT22;37874;53.158;6.766;2023-07-13T15:41:18;27.80;39.40
51815;DHT22;37874;53.158;6.766;2023-07-13T15:43:46;27.80;39.10
51815;DHT22;37874;53.158;6.766;2023-07-13T15:46:12;27.80;39.00
51815;DHT22;37874;53.158;6.766;2023-07-13T15:48:39;27.90;39.10
51815;DHT22;37874;53.158;6.766;2023-07-13T15:51:11;28.00;39.30
51815;DHT22;37874;53.158;6.766;2023-07-13T15:53:38;28.00;39.10
51815;DHT22;37874;53.158;6.766;2023-07-13T15:58:42;28.00;40.10
51815;DHT22;37874;53.158;6.766;2023-07-13T16:01:10;28.00;39.60
51815;DHT22;37874;53.158;6.766;2023-07-13T16:03:36;28.00;39.50
51815;DHT22;37874;53.158;6.766;2023-07-13T16:06:02;28.00;39.70
51815;DHT22;37874;53.158;6.766;2023-07-13T16:08:31;28.00;40.00
51815;DHT22;37874;53.158;6.766;2023-07-13T16:11:01;27.90;40.00
51815;DHT22;37874;53.158;6.766;2023-07-13T16:13:28;27.90;39.80
51815;DHT22;37874;53.158;6.766;2023-07-13T16:15:54;27.80;39.80